createdAt,value
2023-02-16T00:01:51.518Z,43.42
2023-02-16T00:03:55.519Z,42.75
2023-02-16T00:05:57.897Z,45.25
2023-02-16T00:08:01.565Z,45.42
2023-02-16T00:10:03.968Z,44.22
2023-02-16T00:12:37.467Z,38.47
2023-02-16T00:14:40.496Z,40.28
2023-02-16T00:16:43.044Z,39.10
2023-02-16T00:18:45.947Z,48.88
2023-02-16T00:20:50.211Z,39.05
2023-02-16T00:22:53.008Z,42.03
2023-02-16T00:24:55.456Z,43.90
2023-02-16T00:26:59.866Z,45.10
2023-02-16T00:29:02.464Z,39.80
2023-02-16T00:31:05.523Z,40.53
2023-02-16T00:33:19.931Z,38.58
2023-02-16T00:35:22.716Z,45.42
2023-02-16T00:37:25.382Z,41.45
2023-02-16T00:39:28.372Z,41.45
2023-02-16T00:41:49.751Z,45.90
2023-02-16T00:43:55.137Z,45.40
2023-02-16T00:45:58.165Z,37.67
2023-02-16T00:48:01.116Z,43.05
2023-02-16T00:50:11.066Z,38.85
2023-02-16T00:52:32.350Z,46.15
2023-02-16T00:54:34.997Z,37.85
2023-02-16T00:56:38.370Z,43.13
2023-02-16T00:58:41.433Z,47.13
2023-02-16T01:00:51.451Z,40.55
2023-02-16T01:02:59.250Z,43.50
2023-02-16T01:05:01.508Z,44.28
2023-02-16T01:07:30.128Z,36.83
2023-02-16T01:09:51.267Z,39.33
2023-02-16T01:11:53.566Z,42.15
2023-02-16T01:13:57.305Z,42.75
2023-02-16T01:15:59.901Z,40.72
2023-02-16T01:18:06.571Z,41.95
2023-02-16T01:20:17.923Z,40.60
2023-02-16T01:22:20.307Z,38.00
2023-02-16T01:24:22.672Z,42.80
2023-02-16T01:26:25.273Z,44.80
2023-02-16T01:28:27.940Z,48.08
2023-02-16T01:30:30.662Z,43.50
2023-02-16T01:32:33.496Z,42.38
2023-02-16T01:34:35.683Z,40.65
2023-02-16T01:36:42.262Z,44.97
2023-02-16T01:38:44.546Z,45.67
2023-02-16T01:40:56.766Z,42.33
2023-02-16T01:43:28.129Z,41.42
2023-02-16T01:45:35.905Z,38.15
2023-02-16T01:47:49.853Z,45.95
2023-02-16T01:49:53.147Z,49.03
2023-02-16T01:52:02.937Z,47.72
2023-02-16T01:54:21.854Z,46.28
2023-02-16T01:56:43.974Z,42.47
2023-02-16T01:58:53.495Z,46.60
2023-02-16T02:00:55.781Z,43.88
2023-02-16T02:03:21.980Z,47.58
2023-02-16T02:05:35.245Z,46.10
2023-02-16T02:07:46.373Z,42.88
2023-02-16T02:10:08.579Z,38.92
2023-02-16T02:12:31.261Z,42.70
2023-02-16T02:14:38.871Z,47.13
2023-02-16T02:16:42.017Z,44.00
2023-02-16T02:18:45.783Z,41.75
2023-02-16T02:21:25.662Z,41.45
2023-02-16T02:23:45.856Z,42.35
2023-02-16T02:25:59.845Z,51.53
2023-02-16T02:28:08.740Z,48.20
2023-02-16T02:30:33.147Z,46.10
2023-02-16T02:32:52.090Z,45.17
2023-02-16T02:35:03.322Z,49.30
2023-02-16T02:37:16.678Z,37.45
2023-02-16T02:39:47.260Z,42.40
2023-02-16T02:42:05.941Z,42.10
2023-02-16T02:44:21.318Z,45.25
2023-02-16T02:46:35.492Z,46.83
2023-02-16T02:48:39.676Z,47.80
2023-02-16T02:51:09.440Z,40.10
2023-02-16T02:53:16.266Z,41.15
2023-02-16T02:55:38.169Z,44.25
2023-02-16T02:58:04.527Z,39.10
2023-02-16T03:00:40.682Z,51.65
2023-02-16T03:02:48.580Z,49.88
2023-02-16T03:04:54.244Z,46.33
2023-02-16T03:06:59.340Z,42.42
2023-02-16T03:09:07.146Z,44.10
2023-02-16T03:11:41.596Z,47.80
2023-02-16T03:13:49.214Z,45.65
2023-02-16T03:15:56.501Z,48.05
2023-02-16T03:20:40.842Z,40.55
2023-02-16T03:23:02.055Z,46.08
2023-02-16T03:25:23.703Z,47.90
2023-02-16T03:27:51.238Z,42.72
2023-02-16T03:29:55.957Z,47.80
2023-02-16T03:31:59.470Z,46.15
2023-02-16T03:34:03.949Z,47.40
2023-02-16T03:36:08.037Z,52.50
2023-02-16T03:38:10.717Z,46.30
2023-02-16T03:40:29.592Z,46.13
2023-02-16T03:42:31.844Z,46.28
2023-02-16T03:44:34.751Z,45.03
2023-02-16T03:46:37.573Z,45.80
2023-02-16T03:48:40.118Z,43.95
2023-02-16T03:50:42.557Z,46.70
2023-02-16T03:52:45.108Z,45.70
2023-02-16T03:54:47.585Z,49.67
2023-02-16T03:56:49.804Z,51.72
2023-02-16T03:58:52.398Z,47.50
2023-02-16T04:00:54.838Z,45.70
2023-02-16T04:02:57.441Z,44.85
2023-02-16T04:05:00.396Z,44.03
2023-02-16T04:07:02.791Z,45.65
2023-02-16T04:09:05.177Z,40.25
2023-02-16T04:11:27.932Z,43.28
2023-02-16T04:13:30.262Z,40.88
2023-02-16T04:15:32.876Z,50.15
2023-02-16T04:17:36.176Z,50.72
2023-02-16T04:19:38.404Z,52.08
2023-02-16T04:21:40.679Z,49.88
2023-02-16T04:23:43.007Z,45.92
2023-02-16T04:25:45.587Z,45.22
2023-02-16T04:27:49.896Z,43.80
2023-02-16T04:29:52.202Z,45.40
2023-02-16T04:31:54.734Z,40.35
2023-02-16T04:33:57.424Z,46.65
2023-02-16T04:35:59.620Z,41.78
2023-02-16T04:38:01.997Z,42.10
2023-02-16T04:40:06.613Z,41.38
2023-02-16T04:42:09.054Z,50.78
2023-02-16T04:44:12.815Z,47.80
2023-02-16T04:46:15.471Z,41.75
2023-02-16T04:48:17.681Z,46.03
2023-02-16T04:50:19.957Z,42.85
2023-02-16T04:52:22.884Z,41.40
2023-02-16T04:54:25.464Z,43.75
2023-02-16T04:56:28.513Z,41.22
2023-02-16T04:58:31.011Z,50.60
2023-02-16T05:00:36.266Z,45.22
2023-02-16T05:02:39.023Z,41.95
2023-02-16T05:04:42.587Z,42.35
2023-02-16T05:06:45.770Z,41.58
2023-02-16T05:08:48.298Z,44.25
2023-02-16T05:11:10.880Z,44.50
2023-02-16T05:13:31.766Z,41.60
2023-02-16T05:15:34.516Z,37.20
2023-02-16T05:17:36.727Z,38.08
2023-02-16T05:19:39.923Z,42.65
2023-02-16T05:21:42.490Z,46.65
2023-02-16T05:23:45.128Z,44.22
2023-02-16T05:25:47.482Z,47.03
2023-02-16T05:27:49.759Z,45.95
2023-02-16T05:29:52.488Z,41.03
2023-02-16T05:31:55.728Z,40.20
2023-02-16T05:33:58.501Z,37.67
2023-02-16T05:36:00.963Z,39.63
2023-02-16T05:38:03.680Z,46.45
2023-02-16T05:40:06.849Z,45.90
2023-02-16T05:42:09.351Z,42.28
2023-02-16T05:44:12.279Z,49.08
2023-02-16T05:46:14.596Z,37.65
2023-02-16T05:48:16.853Z,40.90
2023-02-16T05:50:19.134Z,46.03
2023-02-16T05:52:21.440Z,42.63
2023-02-16T05:54:24.255Z,38.95
2023-02-16T05:56:28.550Z,47.03
2023-02-16T05:58:30.910Z,37.30
2023-02-16T06:00:33.997Z,50.65
2023-02-16T06:02:37.247Z,49.53
2023-02-16T06:04:39.787Z,54.33
2023-02-16T06:06:42.898Z,56.03
2023-02-16T06:08:45.845Z,53.30
2023-02-16T06:10:50.716Z,53.55
2023-02-16T06:12:53.290Z,62.53
2023-02-16T06:14:56.337Z,55.75
2023-02-16T06:16:59.033Z,60.45
2023-02-16T06:19:02.200Z,47.95
2023-02-16T06:21:04.910Z,47.40
2023-02-16T06:23:09.304Z,49.88
2023-02-16T06:25:11.848Z,53.88
2023-02-16T06:27:14.253Z,57.88
2023-02-16T06:29:17.640Z,45.75
2023-02-16T06:31:20.569Z,64.05
2023-02-16T06:33:23.444Z,56.17
2023-02-16T06:35:25.778Z,42.63
2023-02-16T06:37:28.104Z,44.15
2023-02-16T06:39:30.989Z,46.53
2023-02-16T06:41:40.597Z,43.40
2023-02-16T06:43:43.689Z,44.08
2023-02-16T06:45:47.071Z,41.42
2023-02-16T06:47:49.391Z,37.95
2023-02-16T06:49:51.807Z,35.00
2023-02-16T06:51:54.279Z,47.08
2023-02-16T06:53:56.772Z,38.80
2023-02-16T06:55:59.938Z,38.05
2023-02-16T06:58:06.737Z,33.90
2023-02-16T07:00:10.070Z,40.05
2023-02-16T07:02:13.150Z,43.42
2023-02-16T07:04:16.065Z,33.83
2023-02-16T07:06:19.442Z,34.03
2023-02-16T07:08:22.278Z,35.35
2023-02-16T07:10:24.757Z,32.90
2023-02-16T07:12:27.234Z,37.85
2023-02-16T07:14:31.387Z,33.70
2023-02-16T07:16:34.375Z,33.05
2023-02-16T07:18:37.569Z,34.78
2023-02-16T07:20:39.856Z,33.15
2023-02-16T07:22:42.123Z,30.65
2023-02-16T07:24:44.639Z,30.95
2023-02-16T07:26:47.255Z,31.05
2023-02-16T07:28:50.235Z,30.42
2023-02-16T07:30:52.684Z,40.75
2023-02-16T07:32:55.162Z,33.13
2023-02-16T07:34:57.645Z,31.50
2023-02-16T07:36:59.856Z,36.50
2023-02-16T07:39:02.609Z,33.83
2023-02-16T07:41:09.055Z,34.65
2023-02-16T07:43:11.946Z,30.45
2023-02-16T07:45:14.425Z,36.08
2023-02-16T07:47:16.956Z,29.50
2023-02-16T07:49:19.953Z,29.58
2023-02-16T07:51:26.664Z,30.60
2023-02-16T07:53:29.714Z,28.90
2023-02-16T07:55:32.362Z,36.15
2023-02-16T07:57:34.651Z,29.23
2023-02-16T07:59:37.369Z,30.02
2023-02-16T08:01:40.625Z,32.00
2023-02-16T08:03:43.652Z,30.23
2023-02-16T08:05:46.218Z,33.15
2023-02-16T08:07:48.532Z,29.70
2023-02-16T08:09:51.077Z,31.50
2023-02-16T08:11:53.505Z,28.88
2023-02-16T08:13:56.315Z,28.05
2023-02-16T08:15:58.921Z,27.95
2023-02-16T08:18:01.427Z,27.80
2023-02-16T08:20:06.644Z,31.95
2023-02-16T08:22:09.607Z,30.25
2023-02-16T08:24:13.437Z,26.40
2023-02-16T08:26:20.321Z,25.35
2023-02-16T08:28:22.950Z,27.92
2023-02-16T08:30:25.953Z,26.05
2023-02-16T08:32:28.870Z,30.45
2023-02-16T08:34:32.267Z,29.23
2023-02-16T08:36:38.646Z,28.55
2023-02-16T08:38:43.678Z,26.85
2023-02-16T08:40:50.378Z,27.50
2023-02-16T08:42:53.241Z,24.15
2023-02-16T08:44:55.931Z,24.17
2023-02-16T08:47:01.472Z,26.55
2023-02-16T08:49:04.205Z,24.80
2023-02-16T08:51:08.318Z,28.65
2023-02-16T08:53:11.676Z,28.30
2023-02-16T08:55:14.288Z,28.52
2023-02-16T08:57:16.995Z,29.48
2023-02-16T08:59:21.973Z,28.10
2023-02-16T09:01:24.605Z,26.23
2023-02-16T09:03:27.154Z,25.80
2023-02-16T09:05:29.603Z,23.02
2023-02-16T09:07:35.497Z,29.75
2023-02-16T09:09:39.050Z,24.08
2023-02-16T09:11:42.565Z,28.38
2023-02-16T09:13:47.419Z,30.27
2023-02-16T09:15:49.927Z,26.40
2023-02-16T09:17:52.789Z,26.95
2023-02-16T09:19:55.412Z,26.27
2023-02-16T09:21:58.230Z,27.55
2023-02-16T09:24:04.889Z,26.38
2023-02-16T09:26:10.176Z,27.25
2023-02-16T09:28:14.289Z,23.85
2023-02-16T09:30:16.991Z,28.27
2023-02-16T09:32:19.348Z,28.42
2023-02-16T09:34:23.794Z,28.13
2023-02-16T09:36:27.665Z,23.67
2023-02-16T09:38:29.961Z,26.83
2023-02-16T09:40:32.340Z,25.83
2023-02-16T09:43:08.560Z,25.52
2023-02-16T09:45:17.104Z,23.40
2023-02-16T09:47:22.542Z,23.50
2023-02-16T09:49:36.465Z,26.63
2023-02-16T09:51:44.740Z,24.35
2023-02-16T09:53:55.632Z,26.83
2023-02-16T09:56:07.615Z,26.30
2023-02-16T09:58:19.518Z,22.83
2023-02-16T10:00:30.369Z,26.33
2023-02-16T10:02:54.905Z,21.95
2023-02-16T10:05:17.660Z,26.15
2023-02-16T10:07:43.892Z,24.52
2023-02-16T10:09:54.782Z,24.08
2023-02-16T10:12:11.641Z,21.00
2023-02-16T10:14:43.844Z,24.02
2023-02-16T10:17:28.961Z,21.88
2023-02-16T10:19:50.576Z,23.77
2023-02-16T10:21:58.272Z,25.35
2023-02-16T10:24:06.059Z,25.25
2023-02-16T10:26:14.379Z,22.80
2023-02-16T10:28:23.114Z,20.42
2023-02-16T10:30:29.005Z,22.60
2023-02-16T10:32:44.133Z,24.13
2023-02-16T10:34:52.112Z,21.70
2023-02-16T10:37:19.713Z,22.67
2023-02-16T10:39:39.900Z,22.23
2023-02-16T10:41:47.523Z,19.80
2023-02-16T10:44:04.058Z,22.55
2023-02-16T10:46:07.391Z,21.67
2023-02-16T10:48:10.929Z,25.40
2023-02-16T10:50:24.348Z,27.48
2023-02-16T10:52:33.260Z,21.65
2023-02-16T10:54:36.978Z,22.60
2023-02-16T10:56:46.160Z,27.88
2023-02-16T10:58:49.900Z,24.33
2023-02-16T11:01:01.400Z,22.13
2023-02-16T11:03:04.270Z,24.80
2023-02-16T11:05:31.357Z,23.58
2023-02-16T11:07:34.256Z,25.10
2023-02-16T11:09:37.940Z,22.30
2023-02-16T11:11:43.008Z,25.98
2023-02-16T11:13:50.548Z,25.48
2023-02-16T11:16:00.642Z,25.65
2023-02-16T11:18:43.268Z,23.85
2023-02-16T11:20:45.948Z,26.05
2023-02-16T11:22:48.843Z,27.33
2023-02-16T11:24:52.158Z,24.77
2023-02-16T11:27:07.199Z,27.23
2023-02-16T11:29:20.648Z,28.92
2023-02-16T11:31:31.002Z,22.60
2023-02-16T11:33:35.420Z,30.38
2023-02-16T11:35:43.440Z,25.70
2023-02-16T11:37:46.725Z,24.65
2023-02-16T11:39:54.215Z,24.90
2023-02-16T11:42:04.472Z,26.52
2023-02-16T11:44:27.647Z,24.35
2023-02-16T11:46:40.514Z,26.77
2023-02-16T11:48:43.490Z,25.95
2023-02-16T11:51:04.062Z,21.63
2023-02-16T11:53:12.494Z,20.77
2023-02-16T11:55:36.615Z,24.10
2023-02-16T11:57:39.240Z,27.15
2023-02-16T11:59:42.351Z,23.08
2023-02-16T12:02:15.450Z,25.95
2023-02-16T12:04:51.225Z,24.73
2023-02-16T12:07:35.849Z,25.38
2023-02-16T12:10:01.798Z,23.33
2023-02-16T12:12:16.673Z,24.33
2023-02-16T12:14:40.977Z,26.83
2023-02-16T12:16:55.333Z,23.40
2023-02-16T12:19:19.443Z,22.92
2023-02-16T12:21:45.831Z,25.55
2023-02-16T12:24:07.120Z,23.42
2023-02-16T12:26:40.915Z,22.25
2023-02-16T12:28:56.273Z,23.05
2023-02-16T12:31:08.026Z,24.77
2023-02-16T12:33:27.099Z,22.52
2023-02-16T12:35:45.276Z,22.92
2023-02-16T12:37:48.030Z,19.75
2023-02-16T12:39:50.919Z,24.10
2023-02-16T12:42:18.286Z,23.20
2023-02-16T12:45:02.670Z,24.00
2023-02-16T12:47:14.010Z,27.17
2023-02-16T12:49:28.371Z,29.35
2023-02-16T12:51:41.572Z,26.65
2023-02-16T12:53:50.924Z,20.48
2023-02-16T12:56:08.473Z,25.38
2023-02-16T12:58:29.296Z,28.50
2023-02-16T13:00:52.715Z,31.25
2023-02-16T13:03:14.199Z,28.73
2023-02-16T13:05:30.173Z,27.52
2023-02-16T13:07:42.279Z,28.23
2023-02-16T13:09:55.698Z,22.65
2023-02-16T13:12:19.224Z,22.33
2023-02-16T13:14:28.701Z,23.45
2023-02-16T13:16:54.044Z,22.83
2023-02-16T13:18:57.522Z,24.90
2023-02-16T13:21:02.681Z,20.88
2023-02-16T13:23:33.081Z,28.13
2023-02-16T13:25:50.447Z,30.83
2023-02-16T13:28:28.455Z,29.08
2023-02-16T13:30:37.210Z,29.85
2023-02-16T13:33:14.768Z,32.03
2023-02-16T13:35:26.461Z,30.90
2023-02-16T13:37:34.763Z,27.23
2023-02-16T13:39:37.227Z,29.67
2023-02-16T13:41:45.566Z,32.58
2023-02-16T13:44:00.816Z,27.85
2023-02-16T13:46:08.622Z,30.55
2023-02-16T13:48:26.814Z,26.35
2023-02-16T13:50:34.492Z,26.00
2023-02-16T13:52:41.951Z,29.95
2023-02-16T13:54:50.570Z,27.58
2023-02-16T13:56:53.044Z,28.17
2023-02-16T13:58:58.358Z,28.58
2023-02-16T14:01:29.905Z,31.45
2023-02-16T14:03:32.333Z,31.92
2023-02-16T14:05:38.909Z,31.73
2023-02-16T14:07:41.402Z,29.77
2023-02-16T14:09:49.479Z,35.28
2023-02-16T14:11:59.828Z,29.45
2023-02-16T14:14:02.632Z,26.05
2023-02-16T14:16:12.894Z,26.52
2023-02-16T14:18:55.341Z,25.38
2023-02-16T14:21:04.793Z,30.80
2023-02-16T14:23:28.747Z,33.03
2023-02-16T14:25:35.737Z,28.45
2023-02-16T14:28:07.882Z,27.55
2023-02-16T14:30:28.453Z,30.75
2023-02-16T14:32:39.716Z,31.77
2023-02-16T14:34:57.572Z,33.17
2023-02-16T14:37:15.387Z,29.50
2023-02-16T14:39:22.866Z,28.73
2023-02-16T14:41:29.791Z,31.58
2023-02-16T14:43:42.997Z,28.63
2023-02-16T14:45:59.726Z,31.25
2023-02-16T14:48:48.941Z,27.27
2023-02-16T14:50:57.030Z,26.55
2023-02-16T14:53:09.422Z,25.77
2023-02-16T14:55:36.358Z,24.40
2023-02-16T14:57:43.782Z,27.05
2023-02-16T14:59:54.692Z,24.25
2023-02-16T15:01:57.503Z,25.40
2023-02-16T15:04:00.146Z,24.88
2023-02-16T15:06:06.826Z,22.58
2023-02-16T15:08:16.834Z,21.27
2023-02-16T15:10:28.777Z,24.52
2023-02-16T15:12:33.649Z,27.70
2023-02-16T15:14:45.712Z,24.58
2023-02-16T15:16:50.220Z,32.55
2023-02-16T15:18:55.670Z,31.52
2023-02-16T15:21:01.796Z,37.95
2023-02-16T15:23:08.443Z,40.00
2023-02-16T15:25:28.229Z,31.40
2023-02-16T15:27:33.317Z,44.85
2023-02-16T15:29:36.492Z,47.95
2023-02-16T15:31:39.934Z,54.40
2023-02-16T15:33:45.309Z,49.15
2023-02-16T15:35:54.383Z,33.78
2023-02-16T15:38:12.212Z,35.05
2023-02-16T15:40:26.955Z,32.60
2023-02-16T15:42:34.551Z,30.92
2023-02-16T15:44:39.722Z,36.10
2023-02-16T15:46:44.109Z,33.92
2023-02-16T15:48:47.103Z,43.42
2023-02-16T15:50:53.898Z,39.70
2023-02-16T15:52:56.590Z,31.40
2023-02-16T15:55:02.701Z,26.58
2023-02-16T15:57:16.199Z,32.20
2023-02-16T15:59:35.327Z,27.55
2023-02-16T16:01:39.114Z,31.65
2023-02-16T16:03:46.977Z,32.10
2023-02-16T16:06:09.337Z,47.22
2023-02-16T16:08:17.029Z,40.03
2023-02-16T16:10:27.516Z,34.30
2023-02-16T16:12:31.158Z,36.28
2023-02-16T16:14:38.407Z,38.33
2023-02-16T16:16:41.409Z,32.40
2023-02-16T16:18:50.533Z,30.88
2023-02-16T16:21:01.073Z,25.67
2023-02-16T16:23:05.235Z,32.45
2023-02-16T16:25:44.043Z,26.35
2023-02-16T16:27:48.800Z,22.67
2023-02-16T16:29:51.990Z,42.05
2023-02-16T16:31:54.607Z,36.22
2023-02-16T16:33:58.865Z,36.75
2023-02-16T16:36:12.414Z,34.50
2023-02-16T16:38:33.695Z,42.67
2023-02-16T16:40:39.593Z,37.00
2023-02-16T16:43:02.865Z,43.10
2023-02-16T16:45:20.560Z,48.92
2023-02-16T16:47:23.039Z,48.40
2023-02-16T16:49:25.685Z,54.03
2023-02-16T16:51:33.696Z,45.47
2023-02-16T16:53:57.809Z,40.78
2023-02-16T16:56:02.181Z,32.35
2023-02-16T16:58:11.303Z,48.25
2023-02-16T17:00:14.994Z,51.45
2023-02-16T17:02:17.415Z,51.25
2023-02-16T17:04:20.066Z,41.60
2023-02-16T17:06:23.841Z,56.72
2023-02-16T17:08:26.363Z,51.20
2023-02-16T17:10:29.866Z,47.25
2023-02-16T17:12:32.714Z,44.75
2023-02-16T17:14:35.413Z,47.03
2023-02-16T17:16:42.098Z,54.47
2023-02-16T17:18:44.803Z,56.50
2023-02-16T17:20:48.748Z,52.15
2023-02-16T17:22:51.513Z,53.08
2023-02-16T17:24:54.088Z,64.00
2023-02-16T17:26:56.559Z,62.95
2023-02-16T17:28:59.805Z,71.88
2023-02-16T17:31:02.525Z,68.50
2023-02-16T17:33:07.352Z,70.35
2023-02-16T17:35:10.125Z,74.10
2023-02-16T17:37:12.869Z,68.80
2023-02-16T17:39:15.563Z,64.63
2023-02-16T17:41:27.603Z,72.90
2023-02-16T17:43:30.426Z,79.90
2023-02-16T17:45:33.864Z,93.75
2023-02-16T17:47:36.451Z,90.97
2023-02-16T17:49:39.367Z,93.75
2023-02-16T17:51:41.916Z,91.60
2023-02-16T17:53:44.545Z,89.63
2023-02-16T17:55:49.100Z,97.40
2023-02-16T17:57:52.079Z,93.43
2023-02-16T17:59:54.572Z,90.38
2023-02-16T18:01:57.729Z,88.85
2023-02-16T18:04:01.034Z,96.53
2023-02-16T18:06:04.145Z,71.55
2023-02-16T18:08:07.930Z,65.97
2023-02-16T18:10:17.218Z,88.38
2023-02-16T18:12:19.967Z,84.78
2023-02-16T18:14:22.587Z,76.53
2023-02-16T18:16:28.362Z,90.38
2023-02-16T18:18:33.169Z,88.63
2023-02-16T18:20:35.568Z,81.72
2023-02-16T18:22:38.068Z,63.72
2023-02-16T18:24:40.835Z,79.72
2023-02-16T18:26:43.416Z,81.97
2023-02-16T18:28:46.149Z,82.47
2023-02-16T18:30:49.838Z,77.47
2023-02-16T18:34:35.468Z,80.32
2023-02-16T18:36:38.810Z,95.20
2023-02-16T18:38:42.372Z,92.05
2023-02-16T18:40:46.061Z,76.53
2023-02-16T18:42:48.562Z,91.35
2023-02-16T18:44:51.035Z,83.20
2023-02-16T18:46:53.813Z,102.28
2023-02-16T18:48:56.644Z,71.50
2023-02-16T18:50:59.244Z,88.57
2023-02-16T18:53:02.248Z,100.75
2023-02-16T18:55:05.013Z,97.38
2023-02-16T18:57:07.579Z,103.18
2023-02-16T18:59:10.276Z,100.68
2023-02-16T19:01:15.000Z,102.40
2023-02-16T19:03:17.607Z,100.78
2023-02-16T19:05:20.273Z,84.43
2023-02-16T19:07:22.797Z,92.30
2023-02-16T19:09:25.647Z,90.60
2023-02-16T19:11:33.112Z,101.35
2023-02-16T19:13:35.692Z,94.03
2023-02-16T19:15:38.152Z,104.10
2023-02-16T19:17:40.844Z,92.38
2023-02-16T19:19:43.638Z,83.88
2023-02-16T19:21:46.395Z,93.60
2023-02-16T19:23:48.944Z,93.40
2023-02-16T19:25:51.894Z,95.15
2023-02-16T19:27:54.372Z,103.20
2023-02-16T19:29:57.303Z,101.55
2023-02-16T19:31:59.996Z,89.10
2023-02-16T19:34:03.307Z,97.88
2023-02-16T19:36:08.490Z,94.68
2023-02-16T19:38:11.069Z,81.20
2023-02-16T19:40:14.013Z,97.93
2023-02-16T19:42:17.281Z,75.30
2023-02-16T19:44:19.889Z,92.82
2023-02-16T19:46:23.610Z,87.90
2023-02-16T19:48:26.088Z,93.18
2023-02-16T19:50:28.607Z,80.07
2023-02-16T19:52:31.308Z,75.32
2023-02-16T19:54:37.779Z,59.55
2023-02-16T19:56:41.608Z,81.20
2023-02-16T19:58:45.274Z,96.28
2023-02-16T20:00:47.826Z,92.85
2023-02-16T20:02:50.331Z,93.45
2023-02-16T20:04:53.763Z,91.50
2023-02-16T20:06:56.832Z,96.53
2023-02-16T20:09:00.488Z,89.25
2023-02-16T20:11:05.239Z,85.45
2023-02-16T20:13:07.906Z,93.72
2023-02-16T20:15:12.512Z,71.20
2023-02-16T20:17:15.028Z,83.57
2023-02-16T20:19:17.799Z,98.25
2023-02-16T20:21:23.961Z,85.85
2023-02-16T20:23:28.088Z,70.85
2023-02-16T20:25:32.975Z,68.95
2023-02-16T20:27:44.473Z,68.72
2023-02-16T20:29:56.354Z,76.65
2023-02-16T20:31:59.604Z,89.40
2023-02-16T20:34:02.690Z,85.88
2023-02-16T20:36:13.018Z,84.93
2023-02-16T20:38:16.847Z,84.15
2023-02-16T20:40:21.184Z,80.45
2023-02-16T20:42:24.128Z,96.03
2023-02-16T20:44:27.152Z,88.78
2023-02-16T20:46:29.704Z,98.70
2023-02-16T20:48:32.693Z,103.97
2023-02-16T20:50:35.077Z,102.15
2023-02-16T20:52:37.837Z,104.10
2023-02-16T20:54:40.521Z,92.80
2023-02-16T20:56:43.318Z,91.63
2023-02-16T20:58:47.891Z,103.25
2023-02-16T21:00:50.463Z,97.93
2023-02-16T21:02:54.292Z,102.32
2023-02-16T21:04:56.924Z,92.07
2023-02-16T21:06:59.264Z,110.38
2023-02-16T21:09:02.424Z,86.97
2023-02-16T21:11:05.253Z,93.22
2023-02-16T21:13:07.684Z,101.38
2023-02-16T21:15:11.549Z,110.45
2023-02-16T21:17:14.207Z,108.13
2023-02-16T21:19:22.932Z,103.78
2023-02-16T21:21:26.245Z,91.63
2023-02-16T21:23:29.372Z,71.97
2023-02-16T21:25:31.834Z,103.15
2023-02-16T21:27:34.547Z,110.07
2023-02-16T21:29:37.582Z,88.93
2023-02-16T21:31:40.286Z,89.95
2023-02-16T21:33:43.962Z,108.00
2023-02-16T21:35:46.379Z,83.85
2023-02-16T21:37:48.829Z,91.68
2023-02-16T21:40:10.712Z,109.25
2023-02-16T21:42:13.401Z,79.40
2023-02-16T21:44:18.578Z,96.05
2023-02-16T21:46:21.462Z,106.90
2023-02-16T21:48:42.584Z,97.57
2023-02-16T21:50:44.852Z,96.53
2023-02-16T21:52:47.173Z,89.15
2023-02-16T21:55:08.370Z,91.03
2023-02-16T21:57:10.747Z,87.93
2023-02-16T21:59:15.804Z,101.50
2023-02-16T22:01:25.224Z,80.03
2023-02-16T22:03:28.266Z,72.10
2023-02-16T22:05:31.502Z,80.38
2023-02-16T22:07:34.109Z,87.95
2023-02-16T22:09:36.422Z,95.07
2023-02-16T22:11:39.229Z,98.80
2023-02-16T22:13:41.551Z,103.75
2023-02-16T22:15:43.852Z,74.78
2023-02-16T22:17:47.382Z,67.82
2023-02-16T22:19:50.218Z,116.68
2023-02-16T22:21:52.585Z,76.00
2023-02-16T22:23:55.877Z,74.20
2023-02-16T22:25:58.261Z,88.90
2023-02-16T22:28:00.562Z,81.65
2023-02-16T22:30:03.837Z,69.50
2023-02-16T22:32:06.696Z,71.13
2023-02-16T22:34:13.342Z,93.03
2023-02-16T22:36:16.120Z,87.55
2023-02-16T22:38:18.654Z,77.43
2023-02-16T22:40:21.463Z,82.22
2023-02-16T22:42:23.939Z,82.82
2023-02-16T22:44:26.582Z,91.45
2023-02-16T22:46:29.909Z,79.80
2023-02-16T22:48:32.221Z,71.63
2023-02-16T22:50:35.191Z,80.05
2023-02-16T22:52:38.538Z,82.55
2023-02-16T22:54:41.053Z,79.40
2023-02-16T22:56:43.365Z,69.28
2023-02-16T22:58:47.020Z,88.30
2023-02-16T23:00:51.426Z,88.50
2023-02-16T23:02:54.120Z,84.15
2023-02-16T23:04:58.851Z,80.60
2023-02-16T23:07:02.546Z,96.65
2023-02-16T23:09:14.633Z,97.97
2023-02-16T23:11:16.994Z,94.05
2023-02-16T23:13:19.532Z,88.63
2023-02-16T23:15:21.823Z,78.70
2023-02-16T23:17:24.690Z,88.18
2023-02-16T23:19:27.530Z,83.65
2023-02-16T23:21:33.133Z,90.40
2023-02-16T23:23:35.711Z,86.55
2023-02-16T23:25:37.917Z,92.78
2023-02-16T23:27:40.137Z,85.80
2023-02-16T23:29:42.352Z,89.20
2023-02-16T23:31:47.466Z,86.43
2023-02-16T23:33:49.930Z,89.28
2023-02-16T23:35:52.555Z,99.60
2023-02-16T23:37:54.791Z,95.43
2023-02-16T23:39:57.306Z,78.30
2023-02-16T23:41:59.995Z,106.43
2023-02-16T23:44:02.735Z,96.93
2023-02-16T23:46:06.366Z,106.07
2023-02-16T23:48:08.958Z,89.72
2023-02-16T23:50:14.420Z,93.35
2023-02-16T23:52:18.112Z,87.55
2023-02-16T23:54:20.351Z,96.53
2023-02-16T23:56:25.945Z,86.45
2023-02-16T23:58:29.800Z,93.20
